• Join FlightAware (Why Join?)
  • Login
  • US Flag 
06:13AM EDT


 

Airport Tracker/Info


-or-


 

Live Flight TrackerFlight Track Log ✈ N675MC ✈ 08-Sep-2013 ✈ KLIT - KATL

Flight Track Log - Related Links

Times and Time Zones

All times are in EDT time to prevent confusion due to time zone crossing. See the N675MC flight status page for this flight to view local times or setup timezone preferences in your user account.

Time Position Orientation Groundspeed Altitude Reporting Facility
EDT Latitude Longitude Course Direction KTS MPH feet Rate Location/Type
06:45PM 34.7156 -92.2469 64° Northeast 145 167 1,100  Level Memphis Center
06:46PM 34.6906 -92.2414 170° South 182 209 1,600 1,380 Climbing Memphis Center
06:47PM 34.6728 -92.1856 111° Southeast 229 264 3,200 1,680 Climbing Memphis Center
06:48PM 34.6890 -91.8515 79° East  Level Estimated
06:48PM 34.6969 -92.1050 70° East 266 306 5,000  Level Memphis Center
06:48PM 34.6994 -92.0722 85° East 266 306 5,900 2,400 Climbing Memphis Center
06:49PM 34.6752 -91.7271 90° East  Level Estimated
06:49PM 34.7028 -91.9764 88° East 284 327 8,300  Level Memphis Center
06:50PM 34.6614 -91.6028 78° East  Level Estimated
06:50PM 34.7186 -91.8756 79° East 289 333 11,000  Level Memphis Center
06:51PM 34.7061 -91.4898 64° Northeast  Level FlightAware Approximate
06:51PM 34.7386 -91.7672 77° East 299 344 12,300  Level Memphis Center
06:52PM 34.7525 -91.6539 81° East 330 380 15,200 2,340 Climbing Memphis Center
06:53PM 34.7703 -91.5353 80° East 348 400 17,000 1,980 Climbing Memphis Center
06:54PM 34.7903 -91.4117 79° East 359 413 19,200 1,920 Climbing Memphis Center
06:55PM 34.8036 -91.2878 82° East 359 413 20,900 1,740 Climbing Memphis Center
06:56PM 34.8233 -91.1617 79° East 379 436 22,700 1,440 Climbing Memphis Center
06:57PM 34.8450 -91.0278 79° East 385 443 23,800 1,260 Climbing Memphis Center
06:58PM 34.8642 -90.9089 79° East 391 450 25,300 1,140 Climbing Memphis Center
06:59PM 34.8711 -90.7672 87° East 402 463 26,100 840 Climbing Memphis Center
07:00PM 34.8756 -90.6228 88° East 419 482 27,000 1,260 Climbing Memphis Center
07:01PM 34.8800 -90.4736 88° East 436 502 28,700 960 Climbing Memphis Center
07:02PM 34.8842 -90.3242 88° East 436 502 29,000 120 Climbing Memphis Center
07:03PM 34.8883 -90.1672 88° East 450 518 29,000  Level Memphis Center
07:04PM 34.8942 -89.9975 88° East 461 531 29,000  Level Memphis Center
07:05PM 34.9019 -89.8733 86° East 461 531 29,000  Level Memphis Center
07:06PM 34.9056 -89.6961 89° East 467 537 29,000  Level Memphis Center
07:07PM 34.9169 -89.5314 85° East 483 556 29,000  Level Memphis Center
07:08PM 34.9200 -89.3794 89° East 458 527 29,000  Level Memphis Center
07:09PM 34.9042 -89.2253 97° East 452 520 29,000  Level Memphis Center
07:10PM 34.8733 -89.0764 104° East 459 528 29,000  Level Memphis Center
07:11PM 34.8425 -88.9250 104° East 459 528 29,000  Level Memphis Center
07:12PM 34.8114 -88.7711 104° East 464 534 29,000  Level Memphis Center
07:13PM 34.7819 -88.5997 102° East 469 540 29,000  Level Memphis Center
07:14PM 34.7592 -88.4664 102° East 469 540 29,000  Level Memphis Center
07:15PM 34.7339 -88.3103 101° East 460 529 29,000  Level Memphis Center
07:16PM 34.7078 -88.1339 100° East 472 543 29,000  Level Memphis Center
07:17PM 34.6903 -87.9803 98° East 484 557 29,000  Level Memphis Center
07:18PM 34.6664 -87.8219 100° East 476 548 29,000  Level Memphis Center
07:19PM 34.6464 -87.6686 99° East 463 533 29,000  Level Memphis Center
07:21PM 34.6061 -87.4003 100° East 471 542 29,000  Level Atlanta Center
07:22PM 34.5769 -87.2453 103° East 470 541 29,000  Level Atlanta Center
07:23PM 34.5411 -87.0925 106° East 470 541 29,000  Level Atlanta Center
07:24PM 34.5050 -86.9425 106° East 470 541 29,000 -480 Level Atlanta Center
07:25PM 34.4689 -86.7903 106° East 470 541 28,100 -1,860 Descending Atlanta Center
07:26PM 34.4367 -86.6431 105° East 458 527 25,300 -2,040 Descending Atlanta Center
07:27PM 34.4042 -86.4936 105° East 458 527 24,100 -660 Descending Atlanta Center
07:28PM 34.3778 -86.3467 102° East 458 527 24,000 -60 Descending Atlanta Center
07:29PM 34.3533 -86.2028 102° East 453 521 24,000  Level Atlanta Center
07:30PM 34.3308 -86.0586 101° East 448 516 24,000  Level Atlanta Center
07:31PM 34.3081 -85.9122 101° East 443 510 24,000 -180 Level Atlanta Center
07:32PM 34.2914 -85.7711 98° East 438 504 23,700 -1,440 Descending Atlanta Center
07:33PM 34.2658 -85.6450 104° East 423 487 21,200 -2,520 Descending Atlanta Center
07:34PM 34.2406 -85.5114 103° East 412 474 18,700 -1,560 Descending Atlanta Center
07:35PM 34.2189 -85.3828 101° East 400 460 18,100 -840 Descending Atlanta Center
07:36PM 34.1892 -85.2517 105° East 400 460 17,100 -1,980 Descending Atlanta Center
07:37PM 34.1631 -85.1233 104° East 393 452 14,200 -1,560 Descending Atlanta Center
07:38PM 34.1011 -85.0372 131° Southeast 354 407 14,000 -120 Descending Atlanta Center
07:39PM 34.0372 -84.9614 135° Southeast 338 389 14,000  Level Atlanta Center
07:40PM 33.9561 -84.8878 143° Southeast 331 381 14,000 -960 Level Atlanta Center
07:41PM 33.8692 -84.8144 145° Southeast 359 413 12,100 -1,140 Descending Atlanta Center
07:42PM 33.8000 -84.7500 142° Southeast 380 437 12,100 -60 Level Atlanta TRACON
07:43PM 33.7167 -84.6833 146° Southeast 380 437 12,000  Descending Atlanta TRACON
07:44PM 33.6333 -84.6167 146° Southeast 302 348 12,100  Climbing Atlanta TRACON
07:45PM 33.5833 -84.5667 140° Southeast 273 314 12,000 -720 Descending Atlanta TRACON
07:46PM 33.5500 -84.5000 121° Southeast 259 298 10,800 -1,320 Descending Atlanta TRACON
07:47PM 33.5333 -84.4167 103° East 254 292 9,400 -1,380 Descending Atlanta TRACON
07:48PM 33.5333 -84.3333 90° East 237 273 8,100 -1,380 Descending Atlanta TRACON
07:49PM 33.5333 -84.2500 90° East 240 276 6,700 -1,380 Descending Atlanta TRACON
07:50PM 33.5500 -84.1833 73° East 226 260 5,400 -1,380 Descending Atlanta TRACON
07:51PM 33.5833 -84.1667 23° Northeast 214 246 4,000 -960 Descending Atlanta TRACON
07:52PM 33.6000 -84.2333 287° West 183 211 3,500 -420 Descending Atlanta TRACON
07:53PM 33.6167 -84.2833 292° West 180 207 3,200 -720 Descending Atlanta TRACON
07:54PM 33.6167 -84.3500 270° West 186 214 2,100 -960 Descending Atlanta TRACON
07:55PM 33.6167 -84.4000 270° West 135 155 1,300 -900 Descending Atlanta TRACON